Mountain Home, AR (72653)

10:49 PM CST on January 28, 2015 (GMT -0600)
Tank Rea Insurance Agency, Inc. | Change Station
CLOSE
Current Station
Personal Weather Station
Location: Mountain Home, AR
Elevation: 797 ft
Nearby Weather Stations

Elev 797 ft 36.33 °N, 92.38 °W | Updated 1 second ago

Clear
Clear
51.1 °F
Feels Like 51.1 °F
N
0.0
Wind Variable Wind from North
Gusts 0.0 mph

Today
High -- | Low -- °F
--% Chance of Precip.
Yesterday
High -- | Low -- °F
Precip. -- in
7:13 AM 5:31 PM
Waxing Gibbous, 71% visible
Pressure 29.94 in
Visibility 10.0 miles
Clouds Clear
Dew Point 39 °F
Humidity 64%
Rainfall 0.00 in
Snow Depth Not available.
UV 0 out of 12
Pollen 3.30 out of 12
Air Quality Not available.
Flu Activity Not available.
METAR KBPK 290353Z AUTO 17008KT 10SM CLR 11/04 A2993 RMK AO2 SLP137 T01110039

More Conditions Fewer Conditions

Pressure 29.94 in
Visibility 10.0 miles
Clouds Clear
Dew Point 39 °F
Humidity 64%
Rainfall 0.00 in
Snow Depth Not available.
UV 0 out of 12
Pollen 3.30 out of 12
Air Quality Not available.
Flu Activity Not available.
METAR KBPK 290353Z AUTO 17008KT 10SM CLR 11/04 A2993 RMK AO2 SLP137 T01110039

More Conditions Fewer Conditions

10-Day Weather Forecast

Almanac

Astronomy

Jan. 28, 2015 Rise Set
Actual Time
Civil Twilight
Nautical Twilight
Astronomical Twilight
Moon
Length of Visible Light
Length of Day
Tomorrow will be .
, % of the Moon is Illuminated

Today's Extremes

State Highs State Lows

Community

WunderPhotos

Upload Photos

1,791,350 photos uploaded!

WunderBlogs® & News

Nearby

Air Quality

  Air Quality AQ Index Pollutant
Not available.

Snow Depth

Station Depth Elevation

Earthquake Activity

City Distance Mag. Time & Date
Minimum magnitude displayed is 2.5.

Coastal Water Temperatures

Place Temperature

Nearby Weather Stations